createdAt,value
2022-12-31T00:01:15.632Z,60.50
2022-12-31T00:03:44.324Z,56.28
2022-12-31T00:06:30.110Z,47.60
2022-12-31T00:08:59.833Z,44.15
2022-12-31T00:11:29.332Z,36.90
2022-12-31T00:13:58.799Z,36.90
2022-12-31T00:16:32.760Z,34.85
2022-12-31T00:19:01.450Z,37.53
2022-12-31T00:21:31.893Z,40.03
2022-12-31T00:24:01.066Z,40.80
2022-12-31T00:26:31.562Z,43.35
2022-12-31T00:29:01.348Z,45.10
2022-12-31T00:31:35.106Z,46.90
2022-12-31T00:34:04.309Z,46.92
2022-12-31T00:36:38.483Z,45.65
2022-12-31T00:39:08.518Z,44.85
2022-12-31T00:41:37.585Z,45.80
2022-12-31T00:44:05.755Z,47.75
2022-12-31T00:49:02.105Z,43.30
2022-12-31T00:51:30.917Z,37.33
2022-12-31T00:53:59.966Z,43.97
2022-12-31T00:56:30.508Z,40.25
2022-12-31T00:59:00.209Z,44.88
2022-12-31T01:01:31.476Z,56.38
2022-12-31T01:04:06.391Z,42.63
2022-12-31T01:06:35.963Z,40.30
2022-12-31T01:09:04.743Z,32.67
2022-12-31T01:11:34.053Z,32.05
2022-12-31T01:14:05.437Z,30.85
2022-12-31T01:16:55.390Z,28.55
2022-12-31T01:19:26.369Z,28.70
2022-12-31T01:21:55.896Z,30.20
2022-12-31T01:24:24.320Z,30.50
2022-12-31T01:26:52.848Z,31.45
2022-12-31T01:29:21.494Z,32.33
2022-12-31T01:31:49.881Z,30.67
2022-12-31T01:34:17.915Z,31.00
2022-12-31T01:36:45.879Z,30.88
2022-12-31T01:39:15.348Z,29.77
2022-12-31T01:41:46.365Z,29.83
2022-12-31T01:44:14.331Z,29.55
2022-12-31T01:46:45.709Z,32.40
2022-12-31T01:49:17.048Z,32.70
2022-12-31T01:51:50.001Z,34.60
2022-12-31T01:54:21.282Z,33.45
2022-12-31T01:56:51.636Z,38.67
2022-12-31T01:59:22.000Z,33.25
2022-12-31T02:01:53.840Z,32.47
2022-12-31T02:04:25.097Z,28.02
2022-12-31T02:07:04.847Z,26.48
2022-12-31T02:09:34.169Z,25.00
2022-12-31T02:12:02.384Z,23.25
2022-12-31T02:14:34.695Z,27.52
2022-12-31T02:17:10.205Z,28.05
2022-12-31T02:19:55.752Z,28.00
2022-12-31T02:22:32.586Z,30.08
2022-12-31T02:25:33.209Z,34.65
2022-12-31T02:28:37.289Z,35.03
2022-12-31T02:33:50.137Z,29.30
2022-12-31T02:36:26.073Z,27.98
2022-12-31T02:38:56.365Z,27.77
2022-12-31T02:41:50.259Z,28.15
2022-12-31T02:44:26.040Z,31.42
2022-12-31T02:47:02.408Z,30.42
2022-12-31T02:50:03.646Z,29.33
2022-12-31T02:52:34.657Z,27.27
2022-12-31T02:55:10.880Z,25.95
2022-12-31T02:57:53.444Z,26.73
2022-12-31T03:00:40.781Z,28.02
2022-12-31T03:03:10.943Z,25.45
2022-12-31T03:05:42.670Z,27.05
2022-12-31T03:08:11.903Z,28.60
2022-12-31T03:10:40.198Z,27.73
2022-12-31T03:13:08.632Z,28.02
2022-12-31T03:15:37.224Z,24.02
2022-12-31T03:18:08.687Z,25.80
2022-12-31T03:21:04.562Z,25.70
2022-12-31T03:24:10.837Z,26.10
2022-12-31T03:26:38.852Z,25.35
2022-12-31T03:29:07.166Z,24.77
2022-12-31T03:31:35.811Z,23.98
2022-12-31T03:34:03.892Z,27.70
2022-12-31T03:36:32.136Z,27.30
2022-12-31T03:39:01.056Z,29.35
2022-12-31T03:41:29.026Z,30.13
2022-12-31T03:43:57.114Z,33.40
2022-12-31T03:46:25.133Z,30.40
2022-12-31T03:48:53.389Z,29.50
2022-12-31T03:51:21.437Z,28.20
2022-12-31T03:53:49.450Z,26.70
2022-12-31T03:56:18.231Z,25.60
2022-12-31T03:58:46.206Z,27.42
2022-12-31T04:01:15.059Z,25.10
2022-12-31T04:03:43.457Z,26.13
2022-12-31T04:06:11.885Z,27.08
2022-12-31T04:08:39.889Z,27.02
2022-12-31T04:11:08.317Z,26.40
2022-12-31T04:13:36.710Z,26.88
2022-12-31T04:16:04.878Z,29.58
2022-12-31T04:18:33.492Z,28.80
2022-12-31T04:21:06.395Z,27.90
2022-12-31T04:23:34.964Z,29.13
2022-12-31T04:26:03.436Z,28.48
2022-12-31T04:28:31.481Z,29.23
2022-12-31T04:30:59.843Z,28.92
2022-12-31T04:33:28.663Z,28.65
2022-12-31T04:36:04.974Z,29.58
2022-12-31T04:38:33.048Z,30.67
2022-12-31T04:41:20.817Z,33.25
2022-12-31T04:43:55.035Z,32.22
2022-12-31T04:46:29.259Z,33.45
2022-12-31T04:48:59.397Z,28.52
2022-12-31T04:51:29.986Z,30.95
2022-12-31T04:53:59.221Z,31.48
2022-12-31T04:56:28.515Z,33.78
2022-12-31T04:58:56.878Z,34.10
2022-12-31T05:01:25.930Z,38.30
2022-12-31T05:03:54.074Z,37.38
2022-12-31T05:06:24.260Z,39.72
2022-12-31T05:08:52.682Z,40.42
2022-12-31T05:11:20.820Z,40.83
2022-12-31T05:13:48.897Z,41.22
2022-12-31T05:16:17.125Z,39.45
2022-12-31T05:18:45.122Z,38.90
2022-12-31T05:21:21.220Z,36.17
2022-12-31T05:23:50.342Z,31.23
2022-12-31T05:26:18.968Z,33.28
2022-12-31T05:28:46.918Z,30.95
2022-12-31T05:31:14.939Z,34.30
2022-12-31T05:33:43.375Z,26.17
2022-12-31T05:36:11.355Z,27.25
2022-12-31T05:38:39.322Z,25.30
2022-12-31T05:41:09.022Z,27.92
2022-12-31T05:43:38.325Z,29.10
2022-12-31T05:46:07.386Z,26.45
2022-12-31T05:48:35.539Z,27.27
2022-12-31T05:51:03.740Z,27.58
2022-12-31T05:53:34.496Z,28.25
2022-12-31T05:56:03.214Z,27.20
2022-12-31T05:58:31.565Z,24.77
2022-12-31T06:00:59.703Z,25.73
2022-12-31T06:03:28.249Z,26.13
2022-12-31T06:05:56.196Z,29.98
2022-12-31T06:08:24.223Z,33.95
2022-12-31T06:10:54.896Z,33.83
2022-12-31T06:13:23.234Z,36.58
2022-12-31T06:15:51.727Z,43.47
2022-12-31T06:18:20.535Z,43.70
2022-12-31T06:20:48.692Z,56.38
2022-12-31T06:23:16.567Z,53.90
2022-12-31T06:25:44.576Z,48.22
2022-12-31T06:28:20.016Z,37.55
2022-12-31T06:30:48.979Z,49.00
2022-12-31T06:33:16.910Z,45.30
2022-12-31T06:35:44.816Z,47.25
2022-12-31T06:38:12.786Z,49.60
2022-12-31T06:40:41.476Z,44.22
2022-12-31T06:43:10.327Z,45.10
2022-12-31T06:45:39.679Z,40.25
2022-12-31T06:48:08.538Z,48.80
2022-12-31T06:50:36.627Z,43.63
2022-12-31T06:53:05.216Z,41.38
2022-12-31T06:55:33.889Z,42.78
2022-12-31T06:58:04.504Z,40.58
2022-12-31T07:00:33.319Z,42.05
2022-12-31T07:03:05.106Z,35.95
2022-12-31T07:05:56.155Z,33.28
2022-12-31T07:08:37.329Z,29.63
2022-12-31T07:11:23.266Z,34.05
2022-12-31T07:14:00.143Z,26.00
2022-12-31T07:16:42.804Z,24.48
2022-12-31T07:19:33.873Z,25.45
2022-12-31T07:22:04.387Z,24.05
2022-12-31T07:24:33.490Z,28.10
2022-12-31T07:27:19.551Z,27.38
2022-12-31T07:30:09.803Z,26.10
2022-12-31T07:33:14.707Z,25.33
2022-12-31T07:35:48.426Z,29.73
2022-12-31T07:38:44.855Z,33.20
2022-12-31T07:41:40.264Z,30.23
2022-12-31T07:44:28.877Z,27.50
2022-12-31T07:47:00.306Z,25.45
2022-12-31T07:49:30.978Z,24.92
2022-12-31T07:52:00.283Z,27.60
2022-12-31T07:54:28.543Z,25.02
2022-12-31T07:56:59.584Z,24.98
2022-12-31T07:59:33.851Z,24.42
2022-12-31T08:02:15.203Z,23.30
2022-12-31T08:04:58.870Z,23.35
2022-12-31T08:07:56.842Z,25.38
2022-12-31T08:10:27.408Z,23.20
2022-12-31T08:13:04.070Z,25.88
2022-12-31T08:15:33.340Z,24.75
2022-12-31T08:18:01.653Z,25.30
2022-12-31T08:20:32.708Z,28.92
2022-12-31T08:23:10.485Z,23.60
2022-12-31T08:25:55.445Z,20.63
2022-12-31T08:28:33.403Z,19.00
2022-12-31T08:31:28.293Z,21.45
2022-12-31T08:34:17.831Z,19.83
2022-12-31T08:37:13.955Z,19.67
2022-12-31T08:40:02.458Z,22.55
2022-12-31T08:42:55.186Z,21.10
2022-12-31T08:45:36.396Z,17.80
2022-12-31T08:48:27.513Z,18.33
2022-12-31T08:50:56.147Z,17.00
2022-12-31T08:53:24.465Z,17.98
2022-12-31T08:56:07.478Z,18.10
2022-12-31T08:58:47.149Z,17.33
2022-12-31T09:01:19.231Z,18.42
2022-12-31T09:03:53.433Z,17.90
2022-12-31T09:06:39.897Z,17.42
2022-12-31T09:09:39.604Z,15.98
2022-12-31T09:12:13.371Z,17.58
2022-12-31T09:14:52.982Z,15.95
2022-12-31T09:17:38.633Z,16.60
2022-12-31T09:20:14.560Z,16.10
2022-12-31T09:22:42.746Z,15.10
2022-12-31T09:25:19.246Z,17.15
2022-12-31T09:27:54.719Z,19.67
2022-12-31T09:30:23.358Z,17.23
2022-12-31T09:33:06.708Z,15.90
2022-12-31T09:35:38.498Z,16.58
2022-12-31T09:38:14.421Z,19.70
2022-12-31T09:40:48.437Z,19.60
2022-12-31T09:43:37.490Z,18.58
2022-12-31T09:46:42.643Z,19.10
2022-12-31T09:49:16.636Z,18.33
2022-12-31T09:52:12.228Z,18.98
2022-12-31T09:55:00.512Z,18.13
2022-12-31T09:57:35.090Z,19.17
2022-12-31T10:00:11.982Z,19.80
2022-12-31T10:03:07.599Z,17.10
2022-12-31T10:05:36.267Z,15.93
2022-12-31T10:08:23.234Z,14.75
2022-12-31T10:10:59.314Z,12.23
2022-12-31T10:13:50.433Z,10.80
2022-12-31T10:16:44.510Z,15.45
2022-12-31T10:19:51.389Z,15.23
2022-12-31T10:22:35.268Z,14.40
2022-12-31T10:28:00.127Z,15.68
2022-12-31T10:30:34.310Z,46.38
2022-12-31T10:33:08.545Z,14.32
2022-12-31T10:35:49.187Z,15.13
2022-12-31T10:38:23.482Z,11.43
2022-12-31T10:41:30.614Z,12.50
2022-12-31T10:44:23.427Z,12.65
2022-12-31T10:47:15.260Z,12.70
2022-12-31T10:50:05.321Z,11.18
2022-12-31T10:52:45.723Z,12.18
2022-12-31T10:55:44.610Z,12.40
2022-12-31T10:58:27.230Z,12.38
2022-12-31T11:00:58.310Z,15.38
2022-12-31T11:03:29.973Z,11.57
2022-12-31T11:06:56.313Z,14.05
2022-12-31T11:09:39.562Z,15.07
2022-12-31T11:12:26.659Z,13.80
2022-12-31T11:15:19.339Z,20.23
2022-12-31T11:18:06.250Z,14.52
2022-12-31T11:20:40.292Z,15.73
2022-12-31T11:23:35.409Z,16.58
2022-12-31T11:26:18.274Z,12.65
2022-12-31T11:28:58.074Z,16.67
2022-12-31T11:31:29.218Z,18.70
2022-12-31T11:34:15.824Z,17.73
2022-12-31T11:37:01.761Z,17.10
2022-12-31T11:39:50.408Z,17.33
2022-12-31T11:42:39.603Z,16.17
2022-12-31T11:45:19.022Z,17.10
2022-12-31T11:48:30.203Z,15.48
2022-12-31T11:51:02.000Z,19.20
2022-12-31T11:53:42.388Z,16.17
2022-12-31T11:56:38.907Z,19.00
2022-12-31T11:59:19.307Z,14.27
2022-12-31T12:02:04.657Z,17.98
2022-12-31T12:04:32.654Z,14.07
2022-12-31T12:07:02.559Z,14.68
2022-12-31T12:09:34.657Z,13.05
2022-12-31T12:12:06.531Z,15.20
2022-12-31T12:14:41.504Z,13.13
2022-12-31T12:17:15.750Z,12.43
2022-12-31T12:19:53.235Z,14.15
2022-12-31T12:22:27.718Z,14.10
2022-12-31T12:25:08.183Z,14.50
2022-12-31T12:27:36.767Z,12.02
2022-12-31T12:30:32.070Z,10.25
2022-12-31T12:33:05.009Z,9.98
2022-12-31T12:38:15.670Z,13.32
2022-12-31T12:41:02.935Z,14.30
2022-12-31T12:43:34.102Z,12.20
2022-12-31T12:46:28.393Z,11.52
2022-12-31T12:48:58.650Z,11.80
2022-12-31T12:51:51.529Z,14.75
2022-12-31T12:54:44.068Z,12.73
2022-12-31T12:57:33.662Z,10.32
2022-12-31T13:00:02.294Z,11.63
2022-12-31T13:03:08.464Z,12.93
2022-12-31T13:06:07.550Z,13.20
2022-12-31T13:08:38.277Z,17.23
2022-12-31T13:11:34.029Z,9.65
2022-12-31T13:14:14.145Z,10.10
2022-12-31T13:17:12.710Z,10.82
2022-12-31T13:19:59.313Z,9.73
2022-12-31T13:22:42.364Z,10.57
2022-12-31T13:25:35.345Z,10.35
2022-12-31T13:28:07.046Z,10.98
2022-12-31T13:30:43.267Z,10.90
2022-12-31T13:33:28.084Z,10.18
2022-12-31T13:36:02.807Z,9.10
2022-12-31T13:38:37.802Z,10.77
2022-12-31T13:41:06.051Z,11.27
2022-12-31T13:43:52.673Z,10.60
2022-12-31T13:46:40.979Z,13.60
2022-12-31T13:49:33.695Z,10.75
2022-12-31T13:52:07.692Z,11.07
2022-12-31T13:55:09.563Z,13.65
2022-12-31T13:57:40.673Z,11.60
2022-12-31T14:00:30.622Z,10.70
2022-12-31T14:03:01.817Z,10.98
2022-12-31T14:06:04.312Z,10.60
2022-12-31T14:08:32.976Z,20.20
2022-12-31T14:11:18.974Z,12.93
2022-12-31T14:13:52.564Z,11.27
2022-12-31T14:16:58.026Z,11.25
2022-12-31T14:19:50.696Z,11.20
2022-12-31T14:22:35.986Z,10.45
2022-12-31T14:25:14.748Z,12.18
2022-12-31T14:27:45.318Z,11.80
2022-12-31T14:30:26.611Z,11.20
2022-12-31T14:32:58.013Z,13.20
2022-12-31T14:36:00.430Z,11.32
2022-12-31T14:38:43.535Z,11.40
2022-12-31T14:41:49.153Z,12.93
2022-12-31T14:44:59.219Z,10.73
2022-12-31T14:47:56.744Z,10.60
2022-12-31T14:50:28.119Z,9.82
2022-12-31T14:52:56.696Z,10.57
2022-12-31T14:55:28.683Z,12.48
2022-12-31T14:58:27.551Z,12.38
2022-12-31T15:01:09.120Z,12.73
2022-12-31T15:03:45.707Z,12.27
2022-12-31T15:06:53.703Z,11.43
2022-12-31T15:09:48.718Z,12.27
2022-12-31T15:12:19.991Z,13.55
2022-12-31T15:15:17.118Z,18.17
2022-12-31T15:18:16.011Z,14.57
2022-12-31T15:20:57.407Z,21.80
2022-12-31T15:23:39.515Z,13.68
2022-12-31T15:26:19.705Z,12.98
2022-12-31T15:29:06.144Z,14.80
2022-12-31T15:31:36.515Z,16.65
2022-12-31T15:34:29.705Z,18.00
2022-12-31T15:37:01.925Z,14.93
2022-12-31T15:39:33.083Z,12.70
2022-12-31T15:44:55.524Z,12.77
2022-12-31T15:47:35.454Z,15.10
2022-12-31T15:50:24.270Z,19.77
2022-12-31T15:53:04.344Z,16.83
2022-12-31T15:55:43.026Z,17.27
2022-12-31T15:58:16.689Z,17.48
2022-12-31T16:00:53.707Z,17.85
2022-12-31T16:03:24.315Z,18.38
2022-12-31T16:06:02.387Z,19.58
2022-12-31T16:08:35.043Z,17.73
2022-12-31T16:11:07.004Z,17.15
2022-12-31T16:13:40.705Z,18.23
2022-12-31T16:16:32.220Z,17.95
2022-12-31T16:19:01.847Z,20.02
2022-12-31T16:21:34.715Z,17.65
2022-12-31T16:24:23.219Z,19.45
2022-12-31T16:26:54.524Z,21.75
2022-12-31T16:29:24.191Z,22.65
2022-12-31T16:31:53.865Z,28.20
2022-12-31T16:34:24.324Z,43.40
2022-12-31T16:36:56.629Z,49.58
2022-12-31T16:39:38.470Z,47.83
2022-12-31T16:42:27.989Z,45.90
2022-12-31T16:44:57.555Z,31.05
2022-12-31T16:47:38.398Z,29.83
2022-12-31T16:50:15.601Z,26.98
2022-12-31T16:52:47.761Z,26.25
2022-12-31T16:55:25.230Z,35.67
2022-12-31T16:57:58.449Z,56.80
2022-12-31T17:03:04.866Z,40.50
2022-12-31T17:05:36.294Z,43.05
2022-12-31T17:08:23.869Z,43.10
2022-12-31T17:10:52.013Z,42.13
2022-12-31T17:13:30.764Z,45.70
2022-12-31T17:16:00.871Z,39.92
2022-12-31T17:18:38.743Z,29.70
2022-12-31T17:21:09.533Z,26.42
2022-12-31T17:23:40.330Z,26.70
2022-12-31T17:26:22.122Z,29.60
2022-12-31T17:28:52.683Z,30.65
2022-12-31T17:31:37.180Z,32.25
2022-12-31T17:34:14.796Z,28.00
2022-12-31T17:36:56.788Z,31.83
2022-12-31T17:39:25.714Z,29.45
2022-12-31T17:41:57.872Z,28.35
2022-12-31T17:44:29.518Z,27.48
2022-12-31T17:46:58.240Z,33.35
2022-12-31T17:49:30.531Z,33.40
2022-12-31T17:51:58.881Z,31.83
2022-12-31T17:54:27.649Z,45.00
2022-12-31T17:56:58.169Z,34.25
2022-12-31T17:59:29.863Z,27.20
2022-12-31T18:02:05.297Z,27.45
2022-12-31T18:04:33.624Z,31.85
2022-12-31T18:07:01.639Z,32.45
2022-12-31T18:09:29.883Z,50.58
2022-12-31T18:12:05.661Z,33.90
2022-12-31T18:14:34.717Z,31.30
2022-12-31T18:17:02.668Z,34.42
2022-12-31T18:20:02.953Z,33.50
2022-12-31T18:22:19.764Z,29.63
2022-12-31T18:24:56.566Z,34.47
2022-12-31T18:27:24.744Z,56.63
2022-12-31T18:29:55.740Z,72.30
2022-12-31T18:32:28.915Z,73.65
2022-12-31T18:34:57.355Z,94.38
2022-12-31T18:37:29.049Z,89.10
2022-12-31T18:39:57.147Z,113.75
2022-12-31T18:42:26.983Z,95.25
2022-12-31T18:44:58.568Z,97.68
2022-12-31T18:47:28.550Z,95.18
2022-12-31T18:49:59.304Z,67.35
2022-12-31T18:52:27.438Z,77.53
2022-12-31T18:54:55.975Z,72.13
2022-12-31T18:57:24.274Z,56.45
2022-12-31T18:59:52.267Z,63.88
2022-12-31T19:02:21.198Z,101.65
2022-12-31T19:04:49.397Z,80.43
2022-12-31T19:07:17.640Z,85.80
2022-12-31T19:09:47.188Z,79.60
2022-12-31T19:12:17.300Z,89.53
2022-12-31T19:14:46.048Z,94.82
2022-12-31T19:17:14.480Z,102.70
2022-12-31T19:19:43.374Z,78.65
2022-12-31T19:22:15.924Z,67.07
2022-12-31T19:24:44.078Z,67.32
2022-12-31T19:27:12.652Z,71.30
2022-12-31T19:29:40.719Z,64.65
2022-12-31T19:32:09.535Z,46.22
2022-12-31T19:34:38.150Z,51.40
2022-12-31T19:37:06.814Z,44.75
2022-12-31T19:39:35.340Z,46.72
2022-12-31T19:42:03.887Z,46.22
2022-12-31T19:44:32.537Z,47.53
2022-12-31T19:47:00.614Z,46.58
2022-12-31T19:49:28.698Z,48.60
2022-12-31T19:51:57.733Z,47.50
2022-12-31T19:54:25.809Z,48.75
2022-12-31T19:56:54.848Z,53.33
2022-12-31T19:59:22.828Z,65.82
2022-12-31T20:01:50.835Z,51.97
2022-12-31T20:04:19.022Z,51.17
2022-12-31T20:06:47.614Z,49.33
2022-12-31T20:09:19.514Z,44.78
2022-12-31T20:11:47.560Z,43.60
2022-12-31T20:14:15.725Z,48.13
2022-12-31T20:16:44.309Z,58.55
2022-12-31T20:19:12.586Z,60.53
2022-12-31T20:21:42.052Z,54.67
2022-12-31T20:24:10.974Z,56.22
2022-12-31T20:26:39.445Z,58.22
2022-12-31T20:29:07.607Z,55.95
2022-12-31T20:31:35.639Z,54.03
2022-12-31T20:34:04.063Z,53.33
2022-12-31T20:36:32.135Z,59.75
2022-12-31T20:39:00.118Z,55.90
2022-12-31T20:41:28.246Z,64.00
2022-12-31T20:43:56.582Z,65.13
2022-12-31T20:46:27.839Z,70.05
2022-12-31T20:48:58.721Z,69.45
2022-12-31T20:51:29.673Z,75.45
2022-12-31T20:54:04.532Z,70.70
2022-12-31T20:56:36.619Z,80.32
2022-12-31T20:59:06.155Z,80.28
2022-12-31T21:01:55.552Z,65.53
2022-12-31T21:04:23.260Z,83.00
2022-12-31T21:06:52.463Z,78.00
2022-12-31T21:09:20.467Z,56.47
2022-12-31T21:12:06.728Z,65.43
2022-12-31T21:14:37.466Z,70.13
2022-12-31T21:17:09.465Z,59.10
2022-12-31T21:19:38.005Z,45.85
2022-12-31T21:22:06.043Z,43.03
2022-12-31T21:24:33.976Z,73.38
2022-12-31T21:27:01.887Z,64.25
2022-12-31T21:29:34.376Z,68.18
2022-12-31T21:32:03.305Z,65.78
2022-12-31T21:34:31.316Z,56.05
2022-12-31T21:36:59.347Z,60.80
2022-12-31T21:39:27.309Z,57.30
2022-12-31T21:41:55.915Z,79.35
2022-12-31T21:44:26.044Z,75.70
2022-12-31T21:49:46.497Z,66.60
2022-12-31T21:52:27.787Z,73.07
2022-12-31T21:55:19.959Z,60.88
2022-12-31T21:58:24.346Z,58.55
2022-12-31T22:00:56.552Z,51.90
2022-12-31T22:03:28.064Z,53.70
2022-12-31T22:06:23.670Z,44.72
2022-12-31T22:08:56.740Z,51.33
2022-12-31T22:11:27.226Z,47.53
2022-12-31T22:13:56.019Z,47.72
2022-12-31T22:16:24.437Z,46.10
2022-12-31T22:18:56.024Z,44.28
2022-12-31T22:21:25.516Z,47.70
2022-12-31T22:23:58.707Z,46.22
2022-12-31T22:26:29.282Z,46.85
2022-12-31T22:28:59.853Z,48.15
2022-12-31T22:31:30.294Z,46.30
2022-12-31T22:33:59.077Z,46.97
2022-12-31T22:36:27.755Z,52.85
2022-12-31T22:38:58.427Z,50.47
2022-12-31T22:41:27.835Z,105.63
2022-12-31T22:44:03.687Z,81.70
2022-12-31T22:46:34.112Z,64.35
2022-12-31T22:49:04.330Z,60.63
2022-12-31T22:51:57.332Z,49.70
2022-12-31T22:54:21.769Z,54.95
2022-12-31T22:56:50.540Z,45.45
2022-12-31T22:59:18.543Z,43.80
2022-12-31T23:01:47.164Z,44.58
2022-12-31T23:04:15.455Z,41.65
2022-12-31T23:06:47.461Z,48.28
2022-12-31T23:09:36.457Z,40.42
2022-12-31T23:12:08.815Z,160.02
2022-12-31T23:14:56.857Z,75.20
2022-12-31T23:17:45.636Z,62.72
2022-12-31T23:20:38.624Z,69.28
2022-12-31T23:23:09.182Z,65.90
2022-12-31T23:25:44.633Z,59.05
2022-12-31T23:28:18.726Z,57.28
2022-12-31T23:30:47.079Z,58.80
2022-12-31T23:33:20.727Z,59.28
2022-12-31T23:35:49.636Z,57.58
2022-12-31T23:38:18.789Z,57.05
2022-12-31T23:40:47.250Z,63.45
2022-12-31T23:43:24.429Z,73.10
2022-12-31T23:45:53.387Z,77.68
2022-12-31T23:48:21.508Z,85.93
2022-12-31T23:50:53.826Z,85.40
2022-12-31T23:53:25.662Z,78.30
2022-12-31T23:55:54.143Z,77.30
2022-12-31T23:58:22.888Z,69.75
